Serenity — WDI4690 — position and weather

sailwx.info

Track history (hours):
 
Tides and Currents Weather Stations Pressure Air Temp Water Temp Dewpoint Dewpoint Depression Visibility Wind Speed Wind Dir Waves Ship Positions

Serenity

Owner: Massie, Joshua R, Santa Barbara, CA. More information available from US FCC via Universal Licensing System and Coast Guard Vessel Documentation Center.

Last reported at 2018-Jul-16 17:25 UTC. Time now 2018-Jul-22 04:25 UTC.
Position N 34°24' W 119°41'.

Length 12 m.

Type: Pleasure craft. MMSI: 367701080.

Date/timePositionNaut miles runAvg speedWind from/ knotsBaromVisibWave heightAir tempDewpointWater temp
2018-Jul-16 17:25N 34°24' W 119°41'3 5.7
2018-Jul-16 16:55N 34°22' W 119°41'4 6.6
2018-Jul-16 16:15N 34°17' W 119°42'2 6.7
2018-Jul-16 16:00N 34°16' W 119°42'4 6.7
2018-Jul-16 15:27N 34°12' W 119°42'3 5.8
2018-Jul-16 14:57N 34°09' W 119°42'3 6.7
2018-Jul-16 14:27N 34°06' W 119°43'3 6.1
2018-Jul-16 13:59N 34°03' W 119°43'1 0.4
2018-Jul-16 12:30N 34°03' W 119°43'0 0.0
2018-Jul-16 11:57N 34°03' W 119°43'0 0.0
2018-Jul-16 11:30N 34°03' W 119°43'0 0.0
2018-Jul-16 11:00N 34°03' W 119°43'0 0.0
2018-Jul-16 10:27N 34°03' W 119°43'0 0.0
2018-Jul-16 09:45N 34°03' W 119°43'0 0.0
2018-Jul-16 09:27N 34°03' W 119°43'0 0.0
2018-Jul-16 08:51N 34°03' W 119°43'0 0.0
2018-Jul-16 08:30N 34°03' W 119°43'0 0.0
2018-Jul-16 07:57N 34°03' W 119°43'0 0.0
2018-Jul-16 07:27N 34°03' W 119°43'0 0.0
2018-Jul-16 06:48N 34°03' W 119°43'0 0.0
2018-Jul-16 06:30N 34°03' W 119°43'0 0.0
2018-Jul-16 06:00N 34°03' W 119°43'0 0.0
2018-Jul-16 03:54N 34°03' W 119°43'0 0.0
2018-Jul-15 19:01N 34°03' W 119°43'0 0.0
2018-Jul-15 18:10N 34°03' W 119°43'0 0.0
2018-Jul-15 17:58N 34°03' W 119°43'0 0.0
2018-Jul-15 17:25N 34°03' W 119°43'0 0.0
2018-Jul-15 16:49N 34°03' W 119°43'0 0.0
2018-Jul-15 15:55N 34°03' W 119°43'0 0.0
2018-Jul-15 12:13N 34°03' W 119°43'0 0.0
2018-Jul-15 11:55N 34°03' W 119°43'0 0.0
2018-Jul-15 11:28N 34°03' W 119°43'0 0.0
2018-Jul-15 10:49N 34°03' W 119°43'0 0.0
2018-Jul-15 10:19N 34°03' W 119°43'0 0.0
2018-Jul-15 09:55N 34°03' W 119°43'0 0.0
2018-Jul-15 09:16N 34°03' W 119°43'0 0.0
2018-Jul-15 08:52N 34°03' W 119°43'0 0.0
2018-Jul-15 08:28N 34°03' W 119°43'0 0.0
2018-Jul-15 07:52N 34°03' W 119°43'0 0.0
2018-Jul-15 07:22N 34°03' W 119°43'0 0.0
2018-Jul-15 06:58N 34°03' W 119°43'0 0.0
2018-Jul-15 06:25N 34°03' W 119°43'0 0.0
2018-Jul-15 05:49N 34°03' W 119°43'0 0.0
2018-Jul-15 05:25N 34°03' W 119°43'0 0.0
2018-Jul-15 04:58N 34°03' W 119°43'0 0.0
2018-Jul-15 04:25N 34°03' W 119°43'0 0.0
2018-Jul-15 03:55N 34°03' W 119°43'0 0.0
2018-Jul-15 03:28N 34°03' W 119°43'0 0.0
2018-Jul-15 02:58N 34°03' W 119°43'0 0.0
2018-Jul-15 02:25N 34°03' W 119°43'0 0.0
2018-Jul-15 01:58N 34°03' W 119°43'0 0.0
2018-Jul-15 01:25N 34°03' W 119°43'0 0.0
2018-Jul-15 00:58N 34°03' W 119°43'0 0.0
2018-Jul-15 00:19N 34°03' W 119°43'0 0.0
2018-Jul-14 23:55N 34°03' W 119°43'0 0.0
2018-Jul-14 23:16N 34°03' W 119°43'0 0.0
2018-Jul-14 22:43N 34°03' W 119°43'0 0.0
2018-Jul-14 21:31N 34°03' W 119°43'0 0.0
2018-Jul-14 21:16N 34°03' W 119°43'0 0.0
2018-Jul-14 20:58N 34°03' W 119°43'0 0.0
2018-Jul-14 20:28N 34°03' W 119°43'0 0.0
2018-Jul-14 19:55N 34°03' W 119°43'0 0.0
2018-Jul-14 19:25N 34°03' W 119°43'0 0.0
2018-Jul-14 18:58N 34°03' W 119°43'0 0.0
2018-Jul-14 18:13N 34°03' W 119°43'0 0.0
2018-Jul-14 16:55N 34°03' W 119°43'0 0.0
2018-Jul-14 16:28N 34°03' W 119°43'0 0.0
2018-Jul-14 15:01N 34°03' W 119°43'0 0.0
2018-Jul-14 14:37N 34°03' W 119°43'0 0.0
2018-Jul-14 14:25N 34°03' W 119°43'0 0.0
2018-Jul-14 13:22N 34°03' W 119°43'0 0.0
2018-Jul-14 12:49N 34°03' W 119°43'0 0.0
2018-Jul-14 12:25N 34°03' W 119°43'0 0.0
2018-Jul-14 11:55N 34°03' W 119°43'0 0.0
2018-Jul-14 11:22N 34°03' W 119°43'0 0.0
2018-Jul-14 10:43N 34°03' W 119°43'0 0.0
2018-Jul-14 10:01N 34°03' W 119°43'0 0.0
2018-Jul-14 09:46N 34°03' W 119°43'0 0.0
2018-Jul-14 09:16N 34°03' W 119°43'0 0.0
2018-Jul-14 08:55N 34°03' W 119°43'0 0.0
2018-Jul-14 08:28N 34°03' W 119°43'0 0.0
2018-Jul-14 07:46N 34°03' W 119°43'0 0.0
2018-Jul-14 07:25N 34°03' W 119°43'0 0.0
2018-Jul-14 06:58N 34°03' W 119°43'0 0.0
2018-Jul-14 06:25N 34°03' W 119°43'0 0.0
2018-Jul-14 05:58N 34°03' W 119°43'0 0.0
2018-Jul-14 05:28N 34°03' W 119°43'0 0.0
2018-Jul-14 04:40N 34°03' W 119°43'0 0.0
2018-Jul-14 04:22N 34°03' W 119°43'0 0.0
2018-Jul-14 03:58N 34°03' W 119°43'0 0.0
2018-Jul-14 03:19N 34°03' W 119°43'0 0.0
2018-Jul-14 01:22N 34°03' W 119°43'0 0.0
2018-Jul-14 00:49N 34°03' W 119°43'0 0.0
2018-Jul-14 00:19N 34°03' W 119°43'0 0.0
2018-Jul-13 21:52N 34°03' W 119°43'0 0.0
2018-Jul-13 20:16N 34°03' W 119°43'0 0.1
2018-Jul-13 19:53N 34°03' W 119°43'2 4.4
2018-Jul-13 19:29N 34°04' W 119°44'2 4.9
2018-Jul-13 19:00N 34°06' W 119°43'2 5.0
2018-Jul-13 18:30N 34°09' W 119°43'3 5.1
2018-Jul-13 18:00N 34°11' W 119°43'3 5.6
2018-Jul-13 17:25N 34°14' W 119°42'6 5.4
2018-Jul-13 16:18N 34°20' W 119°42'4 4.5
2018-Jul-13 15:28N 34°24' W 119°41'  
Track history (hours):
 
Tides and Currents Weather Stations Pressure Air Temp Water Temp Dewpoint Dewpoint Depression Visibility Wind Speed Wind Dir Waves Ship Positions

Serenity

Owner: Massie, Joshua R, Santa Barbara, CA. More information available from US FCC via Universal Licensing System and Coast Guard Vessel Documentation Center.

Last reported at 2018-Jul-16 17:25 UTC. Time now 2018-Jul-22 04:25 UTC.
Position N 34°24' W 119°41'.

Length 12 m.

Type: Pleasure craft. MMSI: 367701080.

Date/timePositionNaut miles runAvg speedWind from/ knotsBaromVisibWave heightAir tempDewpointWater temp
2018-Jul-16 17:25N 34°24' W 119°41'3 5.7
2018-Jul-16 16:55N 34°22' W 119°41'4 6.6
2018-Jul-16 16:15N 34°17' W 119°42'2 6.7
2018-Jul-16 16:00N 34°16' W 119°42'4 6.7
2018-Jul-16 15:27N 34°12' W 119°42'3 5.8
2018-Jul-16 14:57N 34°09' W 119°42'3 6.7
2018-Jul-16 14:27N 34°06' W 119°43'3 6.1
2018-Jul-16 13:59N 34°03' W 119°43'1 0.4
2018-Jul-16 12:30N 34°03' W 119°43'0 0.0
2018-Jul-16 11:57N 34°03' W 119°43'0 0.0
2018-Jul-16 11:30N 34°03' W 119°43'0 0.0
2018-Jul-16 11:00N 34°03' W 119°43'0 0.0
2018-Jul-16 10:27N 34°03' W 119°43'0 0.0
2018-Jul-16 09:45N 34°03' W 119°43'0 0.0
2018-Jul-16 09:27N 34°03' W 119°43'0 0.0
2018-Jul-16 08:51N 34°03' W 119°43'0 0.0
2018-Jul-16 08:30N 34°03' W 119°43'0 0.0
2018-Jul-16 07:57N 34°03' W 119°43'0 0.0
2018-Jul-16 07:27N 34°03' W 119°43'0 0.0
2018-Jul-16 06:48N 34°03' W 119°43'0 0.0
2018-Jul-16 06:30N 34°03' W 119°43'0 0.0
2018-Jul-16 06:00N 34°03' W 119°43'0 0.0
2018-Jul-16 03:54N 34°03' W 119°43'0 0.0
2018-Jul-15 19:01N 34°03' W 119°43'0 0.0
2018-Jul-15 18:10N 34°03' W 119°43'0 0.0
2018-Jul-15 17:58N 34°03' W 119°43'0 0.0
2018-Jul-15 17:25N 34°03' W 119°43'0 0.0
2018-Jul-15 16:49N 34°03' W 119°43'0 0.0
2018-Jul-15 15:55N 34°03' W 119°43'0 0.0
2018-Jul-15 12:13N 34°03' W 119°43'0 0.0
2018-Jul-15 11:55N 34°03' W 119°43'0 0.0
2018-Jul-15 11:28N 34°03' W 119°43'0 0.0
2018-Jul-15 10:49N 34°03' W 119°43'0 0.0
2018-Jul-15 10:19N 34°03' W 119°43'0 0.0
2018-Jul-15 09:55N 34°03' W 119°43'0 0.0
2018-Jul-15 09:16N 34°03' W 119°43'0 0.0
2018-Jul-15 08:52N 34°03' W 119°43'0 0.0
2018-Jul-15 08:28N 34°03' W 119°43'0 0.0
2018-Jul-15 07:52N 34°03' W 119°43'0 0.0
2018-Jul-15 07:22N 34°03' W 119°43'0 0.0
2018-Jul-15 06:58N 34°03' W 119°43'0 0.0
2018-Jul-15 06:25N 34°03' W 119°43'0 0.0
2018-Jul-15 05:49N 34°03' W 119°43'0 0.0
2018-Jul-15 05:25N 34°03' W 119°43'0 0.0
2018-Jul-15 04:58N 34°03' W 119°43'0 0.0
2018-Jul-15 04:25N 34°03' W 119°43'0 0.0
2018-Jul-15 03:55N 34°03' W 119°43'0 0.0
2018-Jul-15 03:28N 34°03' W 119°43'0 0.0
2018-Jul-15 02:58N 34°03' W 119°43'0 0.0
2018-Jul-15 02:25N 34°03' W 119°43'0 0.0
2018-Jul-15 01:58N 34°03' W 119°43'0 0.0
2018-Jul-15 01:25N 34°03' W 119°43'0 0.0
2018-Jul-15 00:58N 34°03' W 119°43'0 0.0
2018-Jul-15 00:19N 34°03' W 119°43'0 0.0
2018-Jul-14 23:55N 34°03' W 119°43'0 0.0
2018-Jul-14 23:16N 34°03' W 119°43'0 0.0
2018-Jul-14 22:43N 34°03' W 119°43'0 0.0
2018-Jul-14 21:31N 34°03' W 119°43'0 0.0
2018-Jul-14 21:16N 34°03' W 119°43'0 0.0
2018-Jul-14 20:58N 34°03' W 119°43'0 0.0
2018-Jul-14 20:28N 34°03' W 119°43'0 0.0
2018-Jul-14 19:55N 34°03' W 119°43'0 0.0
2018-Jul-14 19:25N 34°03' W 119°43'0 0.0
2018-Jul-14 18:58N 34°03' W 119°43'0 0.0
2018-Jul-14 18:13N 34°03' W 119°43'0 0.0
2018-Jul-14 16:55N 34°03' W 119°43'0 0.0
2018-Jul-14 16:28N 34°03' W 119°43'0 0.0
2018-Jul-14 15:01N 34°03' W 119°43'0 0.0
2018-Jul-14 14:37N 34°03' W 119°43'0 0.0
2018-Jul-14 14:25N 34°03' W 119°43'0 0.0
2018-Jul-14 13:22N 34°03' W 119°43'0 0.0
2018-Jul-14 12:49N 34°03' W 119°43'0 0.0
2018-Jul-14 12:25N 34°03' W 119°43'0 0.0
2018-Jul-14 11:55N 34°03' W 119°43'0 0.0
2018-Jul-14 11:22N 34°03' W 119°43'0 0.0
2018-Jul-14 10:43N 34°03' W 119°43'0 0.0
2018-Jul-14 10:01N 34°03' W 119°43'0 0.0
2018-Jul-14 09:46N 34°03' W 119°43'0 0.0
2018-Jul-14 09:16N 34°03' W 119°43'0 0.0
2018-Jul-14 08:55N 34°03' W 119°43'0 0.0
2018-Jul-14 08:28N 34°03' W 119°43'0 0.0
2018-Jul-14 07:46N 34°03' W 119°43'0 0.0
2018-Jul-14 07:25N 34°03' W 119°43'0 0.0
2018-Jul-14 06:58N 34°03' W 119°43'0 0.0
2018-Jul-14 06:25N 34°03' W 119°43'0 0.0
2018-Jul-14 05:58N 34°03' W 119°43'0 0.0
2018-Jul-14 05:28N 34°03' W 119°43'0 0.0
2018-Jul-14 04:40N 34°03' W 119°43'0 0.0
2018-Jul-14 04:22N 34°03' W 119°43'0 0.0
2018-Jul-14 03:58N 34°03' W 119°43'0 0.0
2018-Jul-14 03:19N 34°03' W 119°43'0 0.0
2018-Jul-14 01:22N 34°03' W 119°43'0 0.0
2018-Jul-14 00:49N 34°03' W 119°43'0 0.0
2018-Jul-14 00:19N 34°03' W 119°43'0 0.0
2018-Jul-13 21:52N 34°03' W 119°43'0 0.0
2018-Jul-13 20:16N 34°03' W 119°43'0 0.1
2018-Jul-13 19:53N 34°03' W 119°43'2 4.4
2018-Jul-13 19:29N 34°04' W 119°44'2 4.9
2018-Jul-13 19:00N 34°06' W 119°43'2 5.0
2018-Jul-13 18:30N 34°09' W 119°43'3 5.1
2018-Jul-13 18:00N 34°11' W 119°43'3 5.6
2018-Jul-13 17:25N 34°14' W 119°42'6 5.4
2018-Jul-13 16:18N 34°20' W 119°42'4 4.5
2018-Jul-13 15:28N 34°24' W 119°41'  

Dump ship's entire track history